Latest Weather Observations for Shark Bay Airport

IDW60801

Issued at 12:33 am WST Thursday 23 November 2017 (issued every 30 minutes, with the page automatically refreshed every 10 minutes)

About weather observations | Map of weather stations | Latest weather observations for WA | Other Formats
Station Details ID: 006105 Name: SHARK BAY AIRPORT Lat: -25.89 Lon: 113.58 Height: 33.8 m
Data from the previous 72 hours. | See also: Recent months at Shark Bay Airport
Date/Time
WST
Temp
°C
App
Temp
°C
Dew
Point
°C
Rel
Hum
%
Delta-T
°C
Wind Press
QNH
hPa
Press
MSL
hPa
Rain since
9am
mm
Dir  Spd
km/h
Gust
km/h
Spd
kts
Gust
kts
23/12:30am 21.2 20.0 16.0 72 3.1 S 17 22 9 12 1008.1 1007.9 0.0
23/12:00am 21.5 20.0 16.2 72 3.2 S 19 22 10 12 1008.3 1008.1 0.0
 
Date/Time
WST
Temp
°C
App
Temp
°C
Dew
Point
°C
Rel
Hum
%
Delta-T
°C
Wind Press
QNH
hPa
Press
MSL
hPa
Rain since
9am
mm
Dir  Spd
km/h
Gust
km/h
Spd
kts
Gust
kts
22/11:30pm 21.9 20.4 16.2 70 3.4 S 19 26 10 14 1008.5 1008.3 0.0
22/11:00pm 22.1 19.9 15.9 68 3.7 SSW 22 30 12 16 1008.7 1008.5 0.0
22/10:30pm 22.1 19.7 15.5 66 3.9 SSW 22 32 12 17 1009.0 1008.8 0.0
22/10:00pm 22.4 19.6 15.3 64 4.2 SSW 24 33 13 18 1009.1 1008.9 0.0
22/09:30pm 22.5 19.9 14.9 62 4.5 SSW 22 32 12 17 1009.3 1009.1 0.0
22/09:00pm 22.9 19.4 14.5 59 5.0 SSW 26 35 14 19 1009.1 1008.9 0.0
22/08:30pm 23.1 20.1 14.7 59 5.0 SSW 24 32 13 17 1009.0 1008.8 0.0
22/08:00pm 23.4 18.6 14.1 56 5.5 SSW 32 41 17 22 1008.9 1008.7 0.0
22/07:30pm 23.8 19.0 13.9 54 5.8 SSW 32 44 17 24 1008.7 1008.5 0.0
22/07:00pm 24.6 19.0 13.2 49 6.6 SSW 35 46 19 25 1008.5 1008.3 0.0
22/06:30pm 25.6 19.8 12.8 45 7.4 SSW 35 44 19 24 1008.2 1008.0 0.0
22/06:00pm 26.8 21.7 13.2 43 8.0 SSW 32 44 17 24 1008.1 1007.9 0.0
22/05:30pm 27.9 22.2 13.1 40 8.7 SW 35 50 19 27 1007.9 1007.7 0.0
22/05:00pm 29.1 22.3 12.1 35 9.9 SSW 39 52 21 28 1007.9 1007.7 0.0
22/04:30pm 30.6 22.6 8.9 26 12.1 SSW 41 54 22 29 1008.0 1007.8 0.0
22/04:00pm 32.7 25.7 10.1 25 13.0 SSW 37 48 20 26 1008.0 1007.8 0.0
22/03:58pm 32.5 25.3 9.3 24 13.1 SSW 37 48 20 26 1008.0 1007.8 0.0
22/03:56pm 32.1 24.9 9.0 24 13.0 WSW 37 48 20 26 1008.0 1007.8 0.0
22/03:53pm 32.6 25.5 9.4 24 13.2 WNW 37 48 20 26 1008.0 1007.8 0.0
22/03:51pm 32.9 25.7 9.0 23 13.5 WNW 37 48 20 26 1008.0 1007.8 0.0
22/03:45pm 33.5 26.4 8.2 21 14.1 SW 35 48 19 26 1008.0 1007.8 0.0
22/03:42pm 34.0 26.7 7.1 19 14.8 SSW 35 46 19 25 1008.0 1007.8 0.0
22/03:40pm 33.7 26.2 6.1 18 14.9 SW 35 46 19 25 1008.0 1007.8 0.0
22/03:33pm 34.0 26.7 7.1 19 14.8 SSW 35 46 19 25 1007.9 1007.7 0.0
22/03:31pm 34.0 26.1 6.3 18 15.1 SW 37 46 20 25 1007.9 1007.7 0.0
22/03:30pm 34.2 26.7 6.5 18 15.1 S 35 46 19 25 1007.9 1007.7 0.0
22/03:25pm 34.8 27.8 7.0 18 15.4 N 33 46 18 25 1007.9 1007.7 0.0
22/03:23pm 34.8 27.8 7.0 18 15.4 N 33 46 18 25 1007.8 1007.6 0.0
22/03:00pm 33.7 26.8 9.0 22 14.0 WSW 35 44 19 24 1008.1 1007.9 0.0
22/02:47pm 35.0 26.8 2.5 13 16.7 W 35 44 19 24 1008.2 1008.0 0.0
22/02:42pm 35.0 27.1 2.5 13 16.7 W 33 43 18 23 1008.1 1007.9 0.0
22/02:30pm 35.4 28.7 1.7 12 17.2 WNW 26 39 14 21 1008.2 1008.0 0.0
22/02:00pm 35.4 31.0 4.8 15 16.4 WSW 17 33 9 18 1008.5 1008.3 0.0
22/01:30pm 36.1 31.0 1.0 11 17.8 E 17 32 9 17 1009.0 1008.8 0.0
22/01:00pm 36.3 30.9 1.2 11 17.9 SE 19 32 10 17 1009.3 1009.1 0.0
22/12:30pm 36.2 30.8 2.3 12 17.5 SE 20 33 11 18 1009.6 1009.4 0.0
22/12:00pm 36.1 30.5 3.3 13 17.2 ESE 22 32 12 17 1010.0 1009.8 0.0
22/11:30am 34.3 29.0 4.9 16 15.7 SE 22 30 12 16 1010.4 1010.3 0.0
22/11:00am 33.2 28.8 6.5 19 14.5 ESE 19 28 10 15 1010.9 1010.8 0.0
22/10:30am 32.2 27.3 7.1 21 13.7 ESE 22 32 12 17 1011.1 1011.0 0.0
22/10:00am 30.4 25.8 8.2 25 12.2 SE 22 32 12 17 1011.3 1011.2 0.0
22/09:30am 29.6 24.2 8.1 26 11.8 ESE 26 35 14 19 1011.4 1011.3 0.0
22/09:00am 28.8 23.0 7.9 27 11.4 ESE 28 39 15 21 1011.5 1011.4 0.0
22/08:30am 27.7 21.9 8.1 29 10.6 ESE 28 39 15 21 1011.6 1011.5 0.0
22/08:00am 26.6 21.1 9.0 33 9.6 ESE 28 41 15 22 1011.5 1011.4 0.0
22/07:30am 24.1 18.8 9.7 40 7.9 SE 28 37 15 20 1011.5 1011.4 0.0
22/07:00am 21.9 18.4 11.0 50 6.0 SE 20 32 11 17 1011.7 1011.6 0.0
22/06:30am 19.8 16.7 11.6 59 4.5 SSE 19 24 10 13 1011.5 1011.4 0.0
22/06:00am 18.4 16.0 12.8 70 3.1 SSE 17 24 9 13 1011.4 1011.3 0.0
22/05:30am 17.6 15.4 13.3 76 2.4 SSE 17 24 9 13 1011.1 1011.0 0.0
22/05:00am 17.8 15.3 13.5 76 2.4 SSE 19 26 10 14 1010.9 1010.8 0.0
22/04:30am 18.0 15.4 13.9 77 2.3 SSE 20 26 11 14 1010.7 1010.6 0.0
22/04:00am 18.1 15.6 14.0 77 2.3 SSE 20 30 11 16 1010.6 1010.5 0.0
22/03:30am 18.3 15.4 14.0 76 2.5 SSE 22 30 12 16 1010.5 1010.4 0.0
22/03:00am 18.6 15.3 14.1 75 2.6 SSE 24 32 13 17 1010.6 1010.5 0.0
22/02:30am 18.9 15.3 14.2 74 2.7 SSE 26 35 14 19 1010.7 1010.6 0.0
22/02:00am 19.0 15.0 14.1 73 2.8 SSE 28 39 15 21 1010.7 1010.6 0.0
22/01:30am 19.2 15.2 14.0 72 3.0 SSE 28 39 15 21 1011.0 1010.9 0.0
22/01:00am 19.3 15.2 13.9 71 3.1 SSE 28 39 15 21 1011.2 1011.1 0.0
22/12:30am 19.4 15.4 14.0 71 3.1 SSE 28 41 15 22 1011.5 1011.4 0.0
22/12:00am 19.6 15.6 14.0 70 3.2 SSE 28 41 15 22 1011.9 1011.8 0.0
 
Date/Time
WST
Temp
°C
App
Temp
°C
Dew
Point
°C
Rel
Hum
%
Delta-T
°C
Wind Press
QNH
hPa
Press
MSL
hPa
Rain since
9am
mm
Dir  Spd
km/h
Gust
km/h
Spd
kts
Gust
kts
21/11:30pm 19.9 16.5 14.7 72 3.0 SSE 26 39 14 21 1011.9 1011.8 0.0
21/11:00pm 20.3 16.6 15.1 72 3.1 SSE 28 43 15 23 1012.0 1011.9 0.0
21/10:30pm 20.6 16.6 15.2 71 3.2 SSE 30 39 16 21 1012.1 1012.0 0.0
21/10:10pm 20.6 16.7 15.6 73 3.0 S 30 50 16 27 1012.1 1012.0 0.0
21/10:00pm 20.7 16.9 15.7 73 3.0 S 30 46 16 25 1012.0 1011.9 0.0
21/09:30pm 20.6 16.4 15.8 74 2.9 S 32 46 17 25 1012.0 1011.9 0.0
21/09:03pm 20.8 15.7 15.8 73 3.0 S 37 59 20 32 1012.0 1011.9 0.0
21/09:00pm 20.7 15.9 15.7 73 3.0 S 35 52 19 28 1011.9 1011.8 0.0
21/08:40pm 20.8 16.4 15.6 72 3.1 S 33 52 18 28 1011.9 1011.8 0.0
21/08:30pm 20.9 16.5 15.7 72 3.1 S 33 48 18 26 1011.9 1011.8 0.0
21/08:00pm 21.0 17.2 15.8 72 3.1 S 30 46 16 25 1011.7 1011.6 0.0
21/07:30pm 21.3 17.2 16.0 72 3.2 S 32 43 17 23 1011.4 1011.3 0.0
21/07:00pm 21.6 17.2 15.7 69 3.5 S 33 46 18 25 1011.2 1011.1 0.0
21/06:42pm 22.1 17.7 15.2 65 4.1 S 32 50 17 27 1011.0 1010.9 0.0
21/06:30pm 22.5 17.4 14.9 62 4.5 S 35 50 19 27 1010.9 1010.8 0.0
21/06:00pm 23.8 17.7 14.2 55 5.7 S 39 52 21 28 1010.6 1010.5 0.0
21/05:32pm 24.9 19.9 14.1 51 6.4 S 33 52 18 28 1010.6 1010.5 0.0
21/05:30pm 25.5 20.5 14.0 49 6.8 S 33 48 18 26 1010.6 1010.5 0.0
21/05:00pm 25.5 20.2 15.2 53 6.2 SSW 37 50 20 27 1010.5 1010.4 0.0
21/04:30pm 26.2 20.2 14.3 48 7.1 SSW 39 50 21 27 1010.6 1010.5 0.0
21/04:00pm 27.0 22.0 15.1 48 7.2 S 35 46 19 25 1010.7 1010.6 0.0
21/03:30pm 27.7 21.6 14.0 43 8.2 SSW 39 50 21 27 1010.7 1010.6 0.0
21/03:00pm 28.5 22.3 12.8 38 9.2 SSW 37 50 20 27 1010.9 1010.8 0.0
21/02:45pm 29.2 23.9 12.6 36 9.8 S 32 50 17 27 1011.0 1010.9 0.0
21/02:30pm 29.2 24.0 13.4 38 9.4 SSW 33 48 18 26 1011.2 1011.1 0.0
21/02:00pm 28.5 22.7 12.8 38 9.2 SSW 35 50 19 27 1011.5 1011.4 0.0
21/01:30pm 29.2 23.6 13.4 38 9.4 SSW 35 48 19 26 1011.6 1011.5 0.0
21/01:00pm 28.8 23.6 12.7 37 9.5 SSW 32 43 17 23 1012.0 1011.9 0.0
21/12:39pm 30.0 25.5 13.7 37 9.8 S 30 48 16 26 1012.3 1012.2 0.0
21/12:30pm 29.2 24.6 13.4 38 9.4 S 30 44 16 24 1012.5 1012.4 0.0
21/12:02pm 28.4 22.2 9.2 30 10.6 S 32 52 17 28 1012.6 1012.5 0.0
21/12:00pm 29.4 23.1 9.0 28 11.3 S 32 44 17 24 1012.6 1012.5 0.0
21/11:30am 28.8 23.6 9.0 29 11.0 SE 26 41 14 22 1013.1 1013.0 0.0
21/11:00am 27.5 21.7 9.3 32 10.1 SSE 30 39 16 21 1013.7 1013.6 0.0
21/10:30am 27.0 22.2 10.2 35 9.4 SSE 26 35 14 19 1014.1 1014.0 0.0
21/10:00am 25.2 20.0 10.3 39 8.3 SSE 28 41 15 22 1014.3 1014.2 0.0
21/09:30am 24.3 19.0 11.3 44 7.3 SSE 30 41 16 22 1014.6 1014.5 0.0
21/09:00am 23.1 17.4 11.2 47 6.6 SE 32 48 17 26 1014.8 1014.7 0.0
21/08:30am 22.0 15.0 11.4 51 5.9 SSE 39 50 21 27 1015.2 1015.1 0.0
21/08:08am 21.5 14.4 10.9 51 5.8 SE 39 57 21 31 1015.3 1015.2 0.0
21/08:00am 21.3 14.3 11.3 53 5.5 SSE 39 56 21 30 1015.3 1015.2 0.0
21/07:41am 21.2 15.3 11.2 53 5.5 SSE 33 54 18 29 1015.2 1015.1 0.0
21/07:30am 20.8 14.4 12.0 57 4.9 SSE 37 52 20 28 1015.1 1015.0 0.0
21/07:03am 20.3 15.2 12.0 59 4.6 SSE 30 48 16 26 1014.9 1014.8 0.0
21/07:00am 20.5 15.5 12.2 59 4.7 SSE 30 41 16 22 1015.0 1014.9 0.0
21/06:30am 19.4 14.8 12.2 63 4.0 SSE 28 41 15 22 1014.7 1014.6 0.0
21/06:00am 18.5 14.9 12.9 70 3.1 SSE 24 39 13 21 1014.4 1014.3 0.0
21/05:30am 18.1 14.5 13.2 73 2.8 SSE 24 32 13 17 1014.1 1014.0 0.0
21/05:12am 18.5 14.3 13.4 72 2.9 SSE 28 46 15 25 1013.9 1013.8 0.0
21/05:00am 18.5 15.1 13.6 73 2.8 SSE 24 35 13 19 1013.8 1013.7 0.0
21/04:30am 18.3 15.6 13.6 74 2.7 SSE 20 28 11 15 1013.5 1013.4 0.0
21/04:00am 18.1 14.9 13.2 73 2.8 SSE 22 35 12 19 1013.2 1013.1 0.0
21/03:30am 18.5 14.9 13.1 71 3.0 SSE 24 35 13 19 1013.2 1013.1 0.0
21/03:00am 18.4 15.6 13.1 71 3.0 SSE 20 30 11 16 1013.3 1013.2 0.0
21/02:30am 18.4 15.4 12.6 69 3.2 SSE 20 30 11 16 1013.3 1013.2 0.0
21/02:00am 18.7 15.4 12.9 69 3.3 SSE 22 33 12 18 1013.3 1013.2 0.0
21/01:30am 18.8 15.2 13.0 69 3.3 SSE 24 33 13 18 1013.5 1013.4 0.0
21/01:00am 19.0 15.0 13.0 68 3.4 SSE 26 35 14 19 1013.7 1013.6 0.0
21/12:30am 19.2 15.6 13.2 68 3.4 S 24 35 13 19 1014.0 1013.9 0.0
21/12:00am 19.0 15.3 12.7 67 3.5 S 24 32 13 17 1014.2 1014.1 0.0
 
Date/Time
WST
Temp
°C
App
Temp
°C
Dew
Point
°C
Rel
Hum
%
Delta-T
°C
Wind Press
QNH
hPa
Press
MSL
hPa
Rain since
9am
mm
Dir  Spd
km/h
Gust
km/h
Spd
kts
Gust
kts
20/11:30pm 19.2 13.9 12.5 65 3.8 S 32 44 17 24 1014.3 1014.2 0.0
20/11:10pm 19.3 14.8 12.6 65 3.8 S 28 48 15 26 1014.3 1014.2 0.0
20/11:00pm 19.3 14.8 12.6 65 3.8 S 28 41 15 22 1014.4 1014.3 0.0
20/10:30pm 19.3 14.9 12.8 66 3.7 S 28 39 15 21 1014.4 1014.3 0.0
20/10:00pm 19.4 15.0 12.9 66 3.7 S 28 46 15 25 1014.4 1014.3 0.0
20/09:58pm 19.4 15.0 12.9 66 3.7 S 28 46 15 25 1014.4 1014.3 0.0
20/09:30pm 19.7 14.3 12.7 64 3.9 S 33 46 18 25 1014.3 1014.2 0.0
20/09:00pm 19.6 14.1 12.6 64 3.9 S 33 48 18 26 1014.0 1013.9 0.0
20/08:30pm 19.7 13.8 12.5 63 4.0 S 35 50 19 27 1013.6 1013.5 0.0
20/08:00pm 19.8 14.2 12.1 61 4.3 S 33 48 18 26 1013.6 1013.5 0.0
20/07:30pm 20.1 14.6 12.6 62 4.2 SSW 33 43 18 23 1013.1 1013.0 0.0
20/07:19pm 20.1 14.7 12.1 60 4.5 S 32 50 17 27 1013.0 1012.9 0.0
20/07:00pm 20.3 14.7 12.0 59 4.6 SSW 33 48 18 26 1012.9 1012.8 0.0
20/06:30pm 21.0 14.6 11.9 56 5.1 S 37 46 20 25 1012.5 1012.4 0.0
20/06:00pm 21.7 15.8 12.3 55 5.3 SSW 35 48 19 26 1012.2 1012.1 0.0
20/05:30pm 22.7 16.7 12.0 50 6.0 SSW 35 46 19 25 1012.1 1012.0 0.0
20/05:00pm 23.5 17.1 11.9 48 6.6 SSW 37 48 20 26 1012.0 1011.9 0.0
20/04:30pm 24.3 18.2 11.9 45 7.0 SSW 35 48 19 26 1011.8 1011.7 0.0
20/04:00pm 24.8 18.8 12.1 45 7.3 SSW 35 50 19 27 1011.9 1011.8 0.0
20/03:30pm 25.1 18.9 11.3 42 7.8 SSW 35 46 19 25 1011.9 1011.8 0.0
20/03:00pm 25.2 19.2 12.1 44 7.5 SSW 35 46 19 25 1012.1 1012.0 0.0
20/02:30pm 24.9 19.0 11.1 42 7.8 SSW 33 46 18 25 1012.4 1012.3 0.0
20/02:00pm 25.0 18.5 11.6 43 7.6 SSW 37 50 20 27 1012.6 1012.5 0.0
20/01:30pm 25.4 19.7 11.9 43 7.7 SSW 33 44 18 24 1012.8 1012.7 0.0
20/01:00pm 25.8 20.0 11.6 41 8.1 SW 33 43 18 23 1013.0 1012.9 0.0
20/12:30pm 26.2 21.0 11.5 40 8.4 SSW 30 41 16 22 1013.2 1013.1 0.0
20/12:00pm 25.9 20.1 10.9 39 8.4 SW 32 44 17 24 1013.4 1013.3 0.0
20/11:30am 26.3 21.3 10.9 38 8.7 SSW 28 39 15 21 1013.7 1013.6 0.0
20/11:00am 25.4 21.0 11.6 42 7.8 SSW 26 35 14 19 1013.9 1013.8 0.0
20/10:30am 25.5 21.2 12.0 43 7.7 SSW 26 39 14 21 1014.2 1014.1 0.0
20/10:00am 24.2 19.6 12.2 47 6.9 SSW 28 43 15 23 1014.1 1014.0 0.0
20/09:30am 23.5 18.8 13.1 52 6.0 SSW 30 44 16 24 1014.1 1014.0 0.0
20/09:00am 23.5 19.1 12.8 51 6.2 SSW 28 39 15 21 1014.2 1014.1 0.0
20/08:30am 22.9 18.7 12.5 52 5.9 SSW 26 39 14 21 1014.5 1014.4 0.0
20/08:00am 21.4 17.3 12.8 58 4.9 S 26 33 14 18 1014.7 1014.6 0.0
20/07:30am 20.1 15.8 12.1 60 4.5 SSW 26 33 14 18 1014.5 1014.4 0.0
20/07:00am 21.5 18.7 13.2 59 4.8 S 20 37 11 20 1014.2 1014.1 0.0
20/06:30am 19.0 17.6 13.4 70 3.2 S 13 20 7 11 1014.1 1014.0 0.0
20/06:00am 17.1 15.8 12.6 75 2.5 S 11 13 6 7 1014.0 1013.9 0.0
20/05:30am 16.3 14.4 11.9 75 2.4 S 13 13 7 7 1013.5 1013.4 0.0
20/05:00am 17.1 15.7 12.2 73 2.7 S 11 15 6 8 1013.1 1013.0 0.0
20/04:30am 17.7 15.6 12.4 71 2.9 S 15 20 8 11 1012.9 1012.8 0.0
20/04:00am 17.9 15.4 12.4 70 3.1 S 17 26 9 14 1012.6 1012.5 0.0
20/03:30am 17.9 15.4 12.4 70 3.1 S 17 24 9 13 1012.6 1012.5 0.0
20/03:00am 18.4 16.0 12.6 69 3.2 S 17 24 9 13 1012.6 1012.5 0.0
20/02:30am 18.8 16.1 12.8 68 3.4 S 19 26 10 14 1012.8 1012.7 0.0
20/02:00am 19.0 16.2 13.2 69 3.3 S 20 30 11 16 1012.8 1012.7 0.0
20/01:30am 19.0 15.8 13.2 69 3.3 S 22 35 12 19 1012.9 1012.8 0.0
20/01:00am 18.8 15.2 13.2 70 3.2 S 24 33 13 18 1012.9 1012.8 0.0

Other Formats:

Comma delimited format used in spreadsheet applications
http://www.bom.gov.au/fwo/IDW60801/IDW60801.95402.axf

JavaScript Object Notation format (JSON) in row-major order
http://www.bom.gov.au/fwo/IDW60801/IDW60801.95402.json